Time;durP1;ratioP1;P1;durP2;ratioP2;P2;SDS_P1;SDS_P2;PMS_P1;PMS_P2;Temp;Humidity;BMP_temperature;BMP_pressure;BME280_temperature;BME280_humidity;BME280_pressure;Samples;Min_cycle;Max_cycle;Signal;HPM_P1;HPM_P2
2024/03/01 00:01:33;;;;;;;69.35;20.48;;;11.60;92.10;;;;;;5014508;28;20033;-51
2024/03/01 00:03:59;;;;;;;56.20;19.75;;;11.60;92.10;;;;;;5030697;28;20156;-51
2024/03/01 00:06:24;;;;;;;73.25;19.85;;;11.60;92.10;;;;;;5024666;28;20037;-50
2024/03/01 00:08:50;;;;;;;68.13;20.83;;;11.60;92.10;;;;;;5050492;28;20028;-50
2024/03/01 00:11:15;;;;;;;62.33;18.17;;;11.60;92.10;;;;;;5049248;28;20464;-51
2024/03/01 00:13:42;;;;;;;56.67;18.65;;;11.60;92.10;;;;;;5050465;28;20021;-51
2024/03/01 00:16:08;;;;;;;69.05;19.50;;;11.60;92.10;;;;;;5013950;28;20088;-51
2024/03/01 00:18:34;;;;;;;54.63;17.67;;;11.60;92.10;;;;;;5047391;28;20549;-51
2024/03/01 00:21:00;;;;;;;61.05;18.92;;;11.50;92.20;;;;;;5013953;28;20037;-51
2024/03/01 00:23:28;;;;;;;68.80;19.00;;;11.50;92.20;;;;;;5015062;28;20089;-51
2024/03/01 00:25:54;;;;;;;49.10;18.88;;;11.50;92.20;;;;;;5067893;28;20029;-51
2024/03/01 00:28:20;;;;;;;65.47;19.33;;;11.50;92.20;;;;;;5050082;28;20033;-50
2024/03/01 00:30:46;;;;;;;59.35;18.20;;;11.50;92.20;;;;;;5068009;28;20044;-51
2024/03/01 00:33:12;;;;;;;67.35;19.50;;;11.40;92.20;;;;;;5042678;28;20029;-50
2024/03/01 00:35:37;;;;;;;50.17;17.63;;;11.40;92.20;;;;;;5047607;28;20043;-51
2024/03/01 00:38:03;;;;;;;52.67;19.35;;;11.40;92.20;;;;;;5013927;28;20029;-51
2024/03/01 00:40:29;;;;;;;60.03;17.58;;;11.40;92.20;;;;;;5013655;28;20038;-51
2024/03/01 00:42:54;;;;;;;53.13;17.42;;;11.40;92.30;;;;;;5033462;28;20534;-51
2024/03/01 00:45:20;;;;;;;52.42;17.50;;;11.40;92.30;;;;;;5047744;28;20033;-51
2024/03/01 00:47:50;;;;;;;55.53;18.27;;;11.40;92.20;;;;;;5013674;28;20014;-51
2024/03/01 00:50:16;;;;;;;49.45;17.58;;;11.40;92.30;;;;;;5013736;28;20029;-51
2024/03/01 00:52:44;;;;;;;58.85;19.23;;;11.30;92.30;;;;;;5025528;28;20037;-51
2024/03/01 00:55:10;;;;;;;58.55;18.63;;;11.30;92.30;;;;;;5047515;28;20064;-51
2024/03/01 00:57:35;;;;;;;51.58;18.85;;;11.30;92.30;;;;;;5029892;28;20471;-51
2024/03/01 01:00:01;;;;;;;50.70;18.33;;;11.30;92.40;;;;;;5033278;28;20033;-51
2024/03/01 01:02:27;;;;;;;53.58;17.92;;;11.30;92.40;;;;;;5047437;28;20056;-51
2024/03/01 01:04:52;;;;;;;50.92;17.67;;;11.20;92.40;;;;;;5047155;28;20032;-51
2024/03/01 01:07:19;;;;;;;49.95;18.42;;;11.20;92.40;;;;;;5029877;28;20049;-51
2024/03/01 01:09:46;;;;;;;46.35;16.92;;;11.30;92.40;;;;;;5054200;28;20041;-51
2024/03/01 01:12:11;;;;;;;50.22;16.50;;;11.20;92.40;;;;;;5049619;28;20049;-51
2024/03/01 01:14:37;;;;;;;51.53;17.60;;;11.20;92.40;;;;;;5067138;28;20048;-51
2024/03/01 01:17:02;;;;;;;50.03;17.13;;;11.20;92.40;;;;;;5049142;28;20071;-50
2024/03/01 01:19:28;;;;;;;50.65;17.70;;;11.20;92.50;;;;;;5027725;28;20033;-50
2024/03/01 01:21:54;;;;;;;50.97;18.00;;;11.20;92.50;;;;;;5066965;28;20028;-51
2024/03/01 01:24:20;;;;;;;42.97;17.88;;;11.10;92.50;;;;;;5049012;28;20526;-51
2024/03/01 01:26:46;;;;;;;45.63;16.35;;;11.10;92.50;;;;;;5047492;28;20033;-51
2024/03/01 01:29:11;;;;;;;49.33;17.08;;;11.10;92.60;;;;;;5050003;28;20502;-50
2024/03/01 01:31:37;;;;;;;46.95;17.15;;;11.10;92.80;;;;;;5029113;28;20041;-51
2024/03/01 01:34:03;;;;;;;47.08;16.52;;;11.10;92.50;;;;;;5046700;28;20033;-51
2024/03/01 01:36:29;;;;;;;43.67;17.40;;;11.10;92.50;;;;;;5048158;28;20064;-51
2024/03/01 01:38:55;;;;;;;40.88;17.30;;;11.10;92.60;;;;;;5029009;28;20040;-50
2024/03/01 01:41:20;;;;;;;51.53;17.73;;;11.10;92.60;;;;;;5046675;28;20046;-50
2024/03/01 01:43:46;;;;;;;44.92;17.10;;;11.00;92.60;;;;;;5029234;28;20029;-51
2024/03/01 01:46:12;;;;;;;42.92;16.70;;;11.00;92.60;;;;;;5048084;28;20105;-51
2024/03/01 01:48:38;;;;;;;44.38;17.83;;;11.00;92.60;;;;;;5029129;28;20063;-51
2024/03/01 01:51:04;;;;;;;42.28;17.10;;;11.00;92.70;;;;;;5028669;28;20033;-51
2024/03/01 01:53:30;;;;;;;40.13;16.65;;;11.00;92.70;;;;;;5012765;28;20039;-50
2024/03/01 01:55:55;;;;;;;41.10;16.80;;;11.00;92.70;;;;;;5015524;28;20136;-51
2024/03/01 01:58:21;;;;;;;47.55;16.08;;;11.00;92.70;;;;;;5028987;28;20036;-51
2024/03/01 02:00:47;;;;;;;41.97;17.83;;;10.90;92.60;;;;;;5028512;28;20029;-51
2024/03/01 02:03:13;;;;;;;37.95;16.00;;;11.00;92.70;;;;;;5012319;28;20026;-51
2024/03/01 02:05:39;;;;;;;40.15;16.38;;;11.00;92.70;;;;;;5049889;28;20458;-50
2024/03/01 02:08:05;;;;;;;39.40;16.70;;;10.90;92.70;;;;;;5012530;28;20029;-51
2024/03/01 02:10:31;;;;;;;40.20;15.32;;;10.90;92.70;;;;;;5028631;28;20029;-51
2024/03/01 02:12:58;;;;;;;40.70;16.08;;;10.90;92.80;;;;;;5028331;28;20103;-51
2024/03/01 02:15:25;;;;;;;40.42;15.95;;;10.90;93.10;;;;;;4999792;28;20131;-51
2024/03/01 02:17:50;;;;;;;32.28;15.77;;;10.90;92.70;;;;;;5028896;28;20085;-51
2024/03/01 02:20:17;;;;;;;38.72;16.00;;;10.90;92.70;;;;;;5012291;28;20037;-51
2024/03/01 02:22:44;;;;;;;32.63;15.63;;;10.90;92.70;;;;;;5013025;28;20029;-50
2024/03/01 02:25:10;;;;;;;39.03;15.52;;;10.90;92.80;;;;;;5012063;28;20053;-50
2024/03/01 02:27:35;;;;;;;35.65;15.98;;;10.90;92.80;;;;;;5028564;28;20021;-51
2024/03/01 02:30:01;;;;;;;37.60;15.68;;;10.90;92.80;;;;;;5045946;28;20092;-50
2024/03/01 02:32:27;;;;;;;41.92;16.38;;;10.80;92.80;;;;;;5049206;28;20092;-50
2024/03/01 02:34:52;;;;;;;35.90;16.15;;;10.80;92.80;;;;;;5047862;28;20047;-51
2024/03/01 02:37:18;;;;;;;44.13;16.50;;;10.80;92.90;;;;;;5031531;28;20033;-51
2024/03/01 02:39:44;;;;;;;28.63;14.15;;;10.80;92.90;;;;;;5048169;28;20043;-51
2024/03/01 02:42:09;;;;;;;36.58;15.57;;;10.80;92.90;;;;;;5062500;28;20029;-51
2024/03/01 02:44:35;;;;;;;31.63;15.60;;;10.80;92.90;;;;;;5069757;28;20025;-51
2024/03/01 02:47:01;;;;;;;30.40;14.18;;;10.80;92.90;;;;;;5035573;28;20017;-51
2024/03/01 02:49:26;;;;;;;32.30;15.02;;;10.80;92.90;;;;;;5035421;28;20025;-51
2024/03/01 02:51:52;;;;;;;34.58;15.45;;;10.80;92.90;;;;;;5036029;28;20040;-51
2024/03/01 02:54:17;;;;;;;33.50;15.57;;;10.70;92.90;;;;;;5050089;28;20021;-51
2024/03/01 02:56:43;;;;;;;34.58;15.35;;;10.70;92.90;;;;;;5032237;28;20391;-50
2024/03/01 02:59:10;;;;;;;35.00;16.52;;;10.70;93.00;;;;;;5050560;28;20104;-50
2024/03/01 03:01:36;;;;;;;30.25;15.63;;;10.70;93.00;;;;;;5069078;28;20045;-51
2024/03/01 03:04:01;;;;;;;42.05;16.45;;;10.70;93.10;;;;;;5051883;28;20021;-51
2024/03/01 03:06:27;;;;;;;38.90;15.82;;;10.70;93.00;;;;;;5018667;28;20061;-50
2024/03/01 03:08:52;;;;;;;35.95;16.08;;;10.70;93.10;;;;;;5028806;28;20137;-51
2024/03/01 03:11:20;;;;;;;32.13;15.40;;;10.70;93.10;;;;;;5049443;28;20037;-50
2024/03/01 03:13:47;;;;;;;27.23;14.55;;;10.70;93.10;;;;;;5049484;28;20044;-50
2024/03/01 03:16:16;;;;;;;30.38;15.25;;;10.70;93.10;;;;;;5031716;28;20037;-51
2024/03/01 03:18:42;;;;;;;32.20;15.27;;;10.60;93.10;;;;;;5035543;28;20026;-50
2024/03/01 03:21:07;;;;;;;30.15;14.98;;;10.60;93.10;;;;;;5049264;28;20061;-50
2024/03/01 03:23:33;;;;;;;35.45;14.93;;;10.60;93.20;;;;;;5031814;28;20097;-51
2024/03/01 03:25:59;;;;;;;27.52;15.23;;;10.70;93.20;;;;;;5031510;28;20399;-51
2024/03/01 03:28:25;;;;;;;30.65;14.77;;;10.70;93.10;;;;;;5047535;28;20509;-51
2024/03/01 03:30:50;;;;;;;30.38;15.70;;;10.70;93.10;;;;;;5034870;28;20025;-50
2024/03/01 03:33:16;;;;;;;30.75;16.50;;;10.70;93.10;;;;;;5051444;28;20029;-51
2024/03/01 03:35:42;;;;;;;28.35;15.38;;;10.60;93.10;;;;;;5066338;28;20040;-51
2024/03/01 03:38:07;;;;;;;28.08;14.73;;;10.60;93.10;;;;;;5049264;28;20025;-51
2024/03/01 03:40:33;;;;;;;26.27;15.70;;;10.60;93.10;;;;;;5031260;28;20056;-51
2024/03/01 03:42:59;;;;;;;32.10;14.52;;;10.60;93.20;;;;;;5048818;28;20030;-50
2024/03/01 03:45:26;;;;;;;30.00;14.70;;;10.60;93.20;;;;;;5055134;28;20032;-51
2024/03/01 03:47:52;;;;;;;33.40;15.38;;;10.60;93.20;;;;;;5068857;28;20032;-50
2024/03/01 03:50:17;;;;;;;28.60;14.68;;;10.60;93.20;;;;;;5050980;28;20024;-51
2024/03/01 03:52:44;;;;;;;32.65;15.52;;;10.60;93.20;;;;;;5068392;28;20025;-50
2024/03/01 03:55:10;;;;;;;36.00;15.45;;;10.60;93.20;;;;;;5037331;28;20032;-51
2024/03/01 03:57:36;;;;;;;26.60;14.85;;;10.60;93.20;;;;;;5015294;28;20033;-51
2024/03/01 04:00:03;;;;;;;29.23;14.40;;;10.60;93.20;;;;;;5030882;28;20136;-50
2024/03/01 04:02:29;;;;;;;29.95;15.05;;;10.60;93.20;;;;;;5049587;28;20435;-51
2024/03/01 04:04:55;;;;;;;26.55;13.88;;;10.60;93.20;;;;;;5043182;28;20037;-51
2024/03/01 04:07:20;;;;;;;25.73;14.65;;;10.60;93.30;;;;;;5030966;28;20029;-50
2024/03/01 04:09:46;;;;;;;26.85;15.00;;;10.60;93.30;;;;;;5048420;28;20101;-51
2024/03/01 04:12:12;;;;;;;27.67;14.70;;;10.60;93.30;;;;;;5049878;28;20030;-50
2024/03/01 04:14:37;;;;;;;28.67;15.15;;;10.60;93.30;;;;;;5032527;28;20068;-50
2024/03/01 04:17:04;;;;;;;31.95;14.90;;;10.50;93.30;;;;;;5014415;28;20060;-50
2024/03/01 04:19:29;;;;;;;23.95;14.18;;;10.60;93.30;;;;;;5047972;28;20029;-51
2024/03/01 04:21:56;;;;;;;30.40;14.35;;;10.50;93.30;;;;;;5051734;28;20032;-51
2024/03/01 04:24:21;;;;;;;28.90;14.85;;;10.50;93.30;;;;;;5067996;28;20028;-51
2024/03/01 04:26:47;;;;;;;30.77;14.88;;;10.50;93.30;;;;;;5050210;28;20029;-51
2024/03/01 04:29:12;;;;;;;30.30;16.10;;;10.50;93.40;;;;;;5050360;28;20085;-51
2024/03/01 04:31:40;;;;;;;24.60;14.63;;;10.50;93.40;;;;;;5064391;28;20060;-50
2024/03/01 04:34:06;;;;;;;29.35;15.25;;;10.50;93.40;;;;;;5067856;28;20080;-51
2024/03/01 04:36:36;;;;;;;27.80;15.55;;;10.50;93.40;;;;;;5049966;28;20056;-51
2024/03/01 04:39:05;;;;;;;29.70;15.43;;;10.50;93.40;;;;;;5033599;28;20036;-51
2024/03/01 04:41:31;;;;;;;26.13;15.05;;;10.50;93.40;;;;;;5046560;28;20044;-51
2024/03/01 04:43:57;;;;;;;29.80;15.23;;;10.50;93.40;;;;;;5033437;28;20024;-51
2024/03/01 04:46:22;;;;;;;28.55;14.63;;;10.50;93.40;;;;;;5067865;28;20084;-51
2024/03/01 04:48:48;;;;;;;23.88;14.82;;;10.50;93.40;;;;;;5067808;28;20021;-51
2024/03/01 04:51:14;;;;;;;27.98;15.23;;;10.50;93.70;;;;;;5062861;28;20030;-52
2024/03/01 04:53:40;;;;;;;26.83;15.02;;;10.50;93.50;;;;;;5033156;28;20096;-51
2024/03/01 04:56:09;;;;;;;28.50;15.48;;;10.50;93.50;;;;;;5032952;28;20059;-51
2024/03/01 04:58:35;;;;;;;23.98;15.27;;;10.50;93.50;;;;;;5047886;28;20022;-51
2024/03/01 05:01:01;;;;;;;21.80;15.15;;;10.50;93.60;;;;;;5013150;28;20121;-51
2024/03/01 05:03:30;;;;;;;28.55;15.52;;;10.50;93.70;;;;;;5029702;28;20025;-51
2024/03/01 05:05:56;;;;;;;25.13;15.45;;;10.50;93.80;;;;;;5030062;28;20037;-51
2024/03/01 05:08:22;;;;;;;24.88;15.60;;;10.50;93.90;;;;;;5015241;28;20041;-52
2024/03/01 05:10:49;;;;;;;29.23;14.82;;;10.50;93.90;;;;;;4997513;28;20029;-52
2024/03/01 05:13:17;;;;;;;30.88;16.38;;;10.50;93.90;;;;;;5013685;28;20021;-52
2024/03/01 05:15:43;;;;;;;25.63;15.15;;;10.50;94.10;;;;;;5013260;28;20039;-52
2024/03/01 05:18:08;;;;;;;35.72;16.42;;;10.40;94.20;;;;;;5055890;28;20100;-52
2024/03/01 05:20:34;;;;;;;25.95;14.80;;;10.50;94.30;;;;;;5049207;28;20033;-51
2024/03/01 05:23:00;;;;;;;27.88;14.85;;;10.50;94.30;;;;;;5067009;28;20025;-51
2024/03/01 05:25:26;;;;;;;36.00;16.45;;;10.50;94.20;;;;;;5032356;28;20056;-51
2024/03/01 05:27:52;;;;;;;30.55;15.38;;;10.50;94.40;;;;;;5028585;28;20025;-51
2024/03/01 05:30:19;;;;;;;30.67;15.00;;;10.50;94.40;;;;;;5014582;28;20025;-51
2024/03/01 05:32:46;;;;;;;25.50;15.52;;;10.40;94.30;;;;;;5048818;28;20021;-51
2024/03/01 05:35:12;;;;;;;31.20;16.20;;;10.50;94.40;;;;;;5066461;28;20056;-52
2024/03/01 05:37:38;;;;;;;28.23;15.80;;;10.50;94.50;;;;;;5044185;28;20047;-52
2024/03/01 05:40:04;;;;;;;27.63;15.73;;;10.50;94.60;;;;;;5066754;28;20045;-52
2024/03/01 05:42:30;;;;;;;27.38;15.32;;;10.50;94.50;;;;;;5015640;28;20472;-52
2024/03/01 05:44:57;;;;;;;27.58;15.98;;;10.50;94.60;;;;;;5047863;28;20041;-52
2024/03/01 05:47:23;;;;;;;24.20;15.65;;;10.50;94.50;;;;;;5040251;28;20083;-52
2024/03/01 05:49:48;;;;;;;30.40;16.25;;;10.50;94.60;;;;;;5028959;28;20029;-52
2024/03/01 05:52:14;;;;;;;29.67;16.60;;;10.50;94.60;;;;;;5028696;28;20033;-52
2024/03/01 05:54:40;;;;;;;29.85;16.20;;;10.50;94.70;;;;;;5050215;28;20094;-52
2024/03/01 05:57:07;;;;;;;34.90;17.25;;;10.50;94.80;;;;;;5028477;28;20087;-52
2024/03/01 05:59:33;;;;;;;35.63;17.10;;;10.50;94.90;;;;;;4995940;28;20025;-52
2024/03/01 06:01:58;;;;;;;37.85;17.83;;;10.50;94.90;;;;;;5046274;28;20400;-53
2024/03/01 06:04:24;;;;;;;32.17;16.58;;;10.50;94.90;;;;;;5032331;28;20034;-52
2024/03/01 06:06:50;;;;;;;28.70;16.58;;;10.50;95.00;;;;;;5046150;28;20029;-52
2024/03/01 06:09:17;;;;;;;41.15;17.10;;;10.50;94.90;;;;;;5046181;28;20025;-52
2024/03/01 06:11:43;;;;;;;40.75;16.58;;;10.50;94.90;;;;;;5012104;28;20029;-52
2024/03/01 06:14:10;;;;;;;36.95;17.63;;;10.50;95.10;;;;;;5036379;28;20021;-52
2024/03/01 06:16:36;;;;;;;49.85;17.92;;;10.50;95.20;;;;;;5047768;28;20097;-52
2024/03/01 06:19:02;;;;;;;40.50;18.00;;;10.50;95.30;;;;;;5048255;28;20070;-52
2024/03/01 06:21:27;;;;;;;46.22;17.15;;;10.50;95.30;;;;;;5031595;28;20435;-52
2024/03/01 06:23:53;;;;;;;52.65;19.10;;;10.50;95.30;;;;;;5062257;28;20029;-52
2024/03/01 06:26:19;;;;;;;46.38;18.25;;;10.50;95.30;;;;;;5066087;28;20089;-52
2024/03/01 06:28:44;;;;;;;36.15;17.83;;;10.50;95.30;;;;;;5047858;28;20216;-52
2024/03/01 06:31:10;;;;;;;62.20;20.35;;;10.50;95.40;;;;;;5031425;28;20041;-52
2024/03/01 06:33:36;;;;;;;69.38;20.35;;;10.50;95.70;;;;;;5027438;28;20086;-52
2024/03/01 06:36:02;;;;;;;65.30;19.48;;;10.50;96.00;;;;;;5065726;28;20037;-52
2024/03/01 06:38:28;;;;;;;76.82;22.40;;;10.50;95.90;;;;;;5065857;28;20044;-52
2024/03/01 06:40:53;;;;;;;66.22;20.17;;;10.50;95.90;;;;;;5046513;28;20033;-52
2024/03/01 06:43:19;;;;;;;48.10;18.67;;;10.50;95.90;;;;;;5031479;28;20030;-53
2024/03/01 06:45:45;;;;;;;69.03;19.83;;;10.50;95.80;;;;;;5028194;28;20033;-52
2024/03/01 06:48:11;;;;;;;72.75;20.23;;;10.50;95.80;;;;;;5028260;28;20030;-52
2024/03/01 06:50:36;;;;;;;91.63;22.58;;;10.50;95.90;;;;;;5012645;28;20029;-52
2024/03/01 06:53:02;;;;;;;57.20;20.83;;;10.50;96.00;;;;;;5045827;28;20080;-52
2024/03/01 06:55:28;;;;;;;62.50;20.05;;;10.50;96.00;;;;;;5011582;28;20378;-52
2024/03/01 06:57:53;;;;;;;59.80;21.58;;;10.50;96.10;;;;;;5045690;28;20026;-52
2024/03/01 07:00:20;;;;;;;72.30;21.33;;;10.50;96.10;;;;;;5043102;28;20029;-52
2024/03/01 07:02:46;;;;;;;59.88;21.60;;;10.50;96.10;;;;;;5047664;28;20040;-52
2024/03/01 07:05:11;;;;;;;56.45;19.80;;;10.50;96.10;;;;;;5047778;28;20033;-52
2024/03/01 07:07:37;;;;;;;69.45;18.48;;;10.50;96.20;;;;;;5065501;28;20029;-52
2024/03/01 07:10:03;;;;;;;69.85;20.52;;;10.50;96.20;;;;;;5034696;28;20041;-52
2024/03/01 07:12:29;;;;;;;48.70;18.80;;;10.50;96.30;;;;;;5047523;28;20041;-52
2024/03/01 07:14:55;;;;;;;53.85;19.40;;;10.50;96.40;;;;;;5030565;28;20041;-52
2024/03/01 07:17:20;;;;;;;60.53;18.88;;;10.50;96.40;;;;;;5046429;28;20021;-52
2024/03/01 07:19:46;;;;;;;58.55;18.90;;;10.50;96.40;;;;;;5061300;28;20032;-52
2024/03/01 07:22:11;;;;;;;50.17;17.80;;;10.50;96.40;;;;;;5030202;28;20029;-52
2024/03/01 07:24:37;;;;;;;67.78;19.58;;;10.60;96.50;;;;;;5032611;28;20170;-58
2024/03/01 07:27:03;;;;;;;62.22;19.17;;;10.50;96.50;;;;;;5011850;28;20021;-59
2024/03/01 07:29:28;;;;;;;51.75;18.10;;;10.50;96.80;;;;;;5064051;28;20112;-59
2024/03/01 07:31:54;;;;;;;53.72;18.25;;;10.50;96.60;;;;;;5036790;28;20479;-59
2024/03/01 07:34:20;;;;;;;52.70;17.73;;;10.60;96.60;;;;;;5030846;28;20026;-58
2024/03/01 07:36:45;;;;;;;49.63;18.02;;;10.50;96.60;;;;;;5067895;28;20096;-59
2024/03/01 07:39:11;;;;;;;45.58;17.35;;;10.60;96.70;;;;;;5034027;28;20095;-59
2024/03/01 07:41:37;;;;;;;50.40;17.40;;;10.50;96.60;;;;;;5032250;28;20045;-59
2024/03/01 07:44:03;;;;;;;50.92;17.05;;;10.50;96.60;;;;;;5068404;28;20027;-59
2024/03/01 07:46:29;;;;;;;57.40;17.42;;;10.50;96.70;;;;;;5050294;28;20056;-59
2024/03/01 07:48:55;;;;;;;61.08;17.98;;;10.60;96.60;;;;;;5049895;28;20025;-59
2024/03/01 07:51:20;;;;;;;51.17;15.93;;;10.60;96.60;;;;;;5002266;28;20029;-59
2024/03/01 07:53:47;;;;;;;52.30;17.27;;;10.60;96.70;;;;;;5027981;28;20036;-59
2024/03/01 07:56:13;;;;;;;47.08;15.38;;;10.60;96.60;;;;;;5034013;28;20039;-60
2024/03/01 07:58:39;;;;;;;47.47;14.77;;;10.60;96.60;;;;;;5033706;28;20025;-59
2024/03/01 08:01:04;;;;;;;44.03;15.98;;;10.60;96.50;;;;;;5043723;28;20067;-59
2024/03/01 08:03:30;;;;;;;49.10;16.15;;;10.60;96.60;;;;;;5045673;28;20059;-59
2024/03/01 08:05:56;;;;;;;50.45;15.25;;;10.60;96.70;;;;;;5012499;28;20101;-59
2024/03/01 08:08:35;;;;;;;48.10;15.50;;;10.60;96.70;;;;;;5046323;28;20109;-59
2024/03/01 08:11:00;;;;;;;60.33;15.68;;;10.60;96.60;;;;;;5046801;28;20053;-59
2024/03/01 08:13:26;;;;;;;44.83;14.57;;;10.60;96.70;;;;;;5030855;28;20078;-59
2024/03/01 08:15:53;;;;;;;49.40;14.70;;;10.70;96.80;;;;;;5046553;28;20021;-59
2024/03/01 08:18:27;;;;;;;46.33;14.45;;;10.60;96.70;;;;;;5048068;28;20017;-59
2024/03/01 08:21:06;;;;;;;61.17;15.98;;;10.70;96.70;;;;;;5049042;28;20047;-59
2024/03/01 08:23:39;;;;;;;61.58;15.18;;;10.70;96.90;;;;;;5051082;28;20035;-59
2024/03/01 08:26:32;;;;;;;107.10;18.17;;;10.70;97.10;;;;;;5032892;28;20023;-59
2024/03/01 08:29:00;;;;;;;83.10;15.65;;;10.70;96.90;;;;;;5029399;28;20041;-59
2024/03/01 08:31:35;;;;;;;60.88;15.93;;;10.70;96.80;;;;;;5003067;28;20041;-59
2024/03/01 08:34:07;;;;;;;70.78;15.40;;;10.80;96.80;;;;;;5046214;28;20029;-59
2024/03/01 08:36:34;;;;;;;62.83;14.18;;;10.80;97.20;;;;;;5063860;28;20043;-59
2024/03/01 08:39:15;;;;;;;57.20;14.32;;;10.70;97.00;;;;;;5025046;28;20022;-59
2024/03/01 08:41:48;;;;;;;68.90;14.32;;;10.80;97.00;;;;;;5017239;28;20036;-59
2024/03/01 08:44:35;;;;;;;72.07;13.93;;;10.80;97.00;;;;;;5010375;28;20056;-59
2024/03/01 08:47:01;;;;;;;64.40;14.35;;;10.80;97.20;;;;;;5058367;28;20112;-60
2024/03/01 08:49:54;;;;;;;74.97;14.05;;;10.80;97.10;;;;;;5047039;28;20025;-60
2024/03/01 08:52:30;;;;;;;63.55;14.23;;;10.80;97.30;;;;;;5063522;28;20037;-60
2024/03/01 08:54:56;;;;;;;69.35;12.90;;;10.80;97.30;;;;;;5032296;28;20037;-60
2024/03/01 08:57:25;;;;;;;66.75;13.20;;;10.80;97.20;;;;;;5013213;28;20075;-60
2024/03/01 08:59:51;;;;;;;66.72;13.13;;;10.90;97.20;;;;;;5035711;28;20472;-60
2024/03/01 09:02:26;;;;;;;51.80;12.80;;;10.90;97.30;;;;;;5043525;28;20020;-59
2024/03/01 09:04:52;;;;;;;66.00;13.25;;;10.90;97.10;;;;;;5060080;28;20108;-60
2024/03/01 09:07:25;;;;;;;66.35;13.30;;;10.90;97.20;;;;;;5030572;28;20036;-60
2024/03/01 09:09:51;;;;;;;68.38;13.43;;;10.90;97.20;;;;;;5044721;28;20090;-59
2024/03/01 09:12:23;;;;;;;73.25;14.23;;;10.90;97.20;;;;;;5029759;28;20088;-59
2024/03/01 09:14:48;;;;;;;69.50;14.73;;;10.90;97.00;;;;;;5078598;28;20033;-59
2024/03/01 09:17:14;;;;;;;79.55;13.63;;;10.90;97.20;;;;;;5027781;28;20274;-60
2024/03/01 09:19:41;;;;;;;84.63;14.90;;;11.00;97.20;;;;;;5059979;28;20049;-59
2024/03/01 09:22:06;;;;;;;78.40;13.40;;;11.00;97.10;;;;;;5047723;28;20032;-60
2024/03/01 09:24:37;;;;;;;71.85;13.35;;;10.90;97.10;;;;;;5012377;28;20048;-60
2024/03/01 09:27:07;;;;;;;94.70;16.23;;;10.90;97.00;;;;;;5030807;28;20031;-60
2024/03/01 09:29:34;;;;;;;92.57;14.32;;;11.00;97.10;;;;;;5012037;28;20032;-60
2024/03/01 09:32:01;;;;;;;75.18;12.98;;;11.00;97.30;;;;;;5040082;28;20025;-60
2024/03/01 09:34:34;;;;;;;89.03;15.40;;;11.00;97.00;;;;;;5031487;28;20471;-59
2024/03/01 09:37:00;;;;;;;90.60;17.15;;;11.00;97.10;;;;;;5041163;28;20032;-60
2024/03/01 09:39:25;;;;;;;80.03;14.73;;;11.00;97.20;;;;;;5046082;28;20090;-60
2024/03/01 09:42:36;;;;;;;93.47;13.90;;;11.10;97.10;;;;;;5026885;28;20029;-59
2024/03/01 09:45:28;;;;;;;80.53;12.20;;;11.00;97.00;;;;;;4963428;28;20559;-59
2024/03/01 09:48:12;;;;;;;78.45;13.80;;;11.10;96.80;;;;;;5060746;28;20066;-60
2024/03/01 09:50:57;;;;;;;97.93;13.25;;;11.10;96.80;;;;;;5044481;28;20097;-60
2024/03/01 09:53:47;;;;;;;91.22;13.88;;;11.10;96.90;;;;;;5063908;28;20020;-60
2024/03/01 09:56:20;;;;;;;77.85;12.73;;;11.10;96.90;;;;;;5064058;28;20033;-60
2024/03/01 09:59:02;;;;;;;94.65;13.82;;;11.10;97.00;;;;;;5061560;28;20066;-60
2024/03/01 10:01:34;;;;;;;79.40;12.48;;;11.10;97.10;;;;;;5027865;28;20460;-58
2024/03/01 10:04:18;;;;;;;87.55;13.43;;;11.10;97.10;;;;;;5038579;28;20031;-59
2024/03/01 10:07:08;;;;;;;76.03;13.35;;;11.10;97.20;;;;;;5069411;28;20033;-59
2024/03/01 10:10:00;;;;;;;98.55;14.77;;;11.10;97.30;;;;;;5046347;28;20448;-59
2024/03/01 10:12:47;;;;;;;83.35;13.75;;;11.20;97.40;;;;;;5044508;28;20029;-59
2024/03/01 10:15:56;;;;;;;99.72;13.73;;;11.20;97.50;;;;;;5027074;28;20407;-60
2024/03/01 10:18:40;;;;;;;74.45;12.32;;;11.20;97.60;;;;;;4965410;28;20053;-58
2024/03/01 10:21:25;;;;;;;101.85;13.55;;;11.20;97.50;;;;;;5064179;28;20116;-59
2024/03/01 10:23:59;;;;;;;117.25;16.60;;;11.20;97.30;;;;;;5045836;28;20025;-59
2024/03/01 10:26:28;;;;;;;116.20;16.02;;;11.20;97.30;;;;;;5042673;28;20025;-59
2024/03/01 10:29:25;;;;;;;109.88;16.70;;;11.20;97.40;;;;;;5036391;28;20180;-59
2024/03/01 10:32:07;;;;;;;90.43;13.90;;;11.20;97.40;;;;;;5062572;28;20387;-59
2024/03/01 10:35:02;;;;;;;126.32;15.98;;;11.30;97.40;;;;;;5047027;28;20077;-59
2024/03/01 10:37:40;;;;;;;141.13;18.00;;;11.30;97.80;;;;;;5058563;28;20128;-59
2024/03/01 10:40:14;;;;;;;104.63;13.35;;;11.30;97.90;;;;;;5043269;28;20141;-59
2024/03/01 10:42:43;;;;;;;108.93;15.10;;;11.30;97.70;;;;;;5047562;28;20025;-59
2024/03/01 10:45:12;;;;;;;133.23;16.25;;;11.40;97.80;;;;;;5031080;28;20071;-59
2024/03/01 10:47:38;;;;;;;100.55;14.93;;;11.30;97.90;;;;;;5012510;28;20041;-59
2024/03/01 10:50:13;;;;;;;113.50;15.25;;;11.40;97.80;;;;;;5027163;28;20032;-59
2024/03/01 10:52:58;;;;;;;120.93;15.82;;;11.40;97.70;;;;;;5063791;28;20471;-59
2024/03/01 10:55:25;;;;;;;124.40;15.87;;;11.40;97.80;;;;;;5048282;28;20044;-59
2024/03/01 10:58:22;;;;;;;81.53;13.60;;;11.40;97.80;;;;;;5042102;28;20036;-59
2024/03/01 11:01:07;;;;;;;114.55;17.23;;;11.50;97.90;;;;;;5058580;28;20043;-59
2024/03/01 11:03:43;;;;;;;139.68;16.27;;;11.50;98.00;;;;;;5042947;28;20041;-59
2024/03/01 11:06:23;;;;;;;124.25;16.10;;;11.50;98.00;;;;;;5065487;28;20079;-59
2024/03/01 11:09:09;;;;;;;131.05;15.48;;;11.50;98.10;;;;;;5062636;28;20047;-59
2024/03/01 11:11:35;;;;;;;;;;;11.50;98.10;;;;;;5047287;28;20032;-59
2024/03/01 11:14:02;;;;;;;140.13;18.73;;;11.50;98.00;;;;;;5067633;28;19909;-59
2024/03/01 11:16:31;;;;;;;121.47;16.30;;;11.50;98.00;;;;;;5031384;28;20037;-59
2024/03/01 11:18:59;;;;;;;92.55;14.00;;;11.60;98.00;;;;;;5045684;28;20020;-59
2024/03/01 11:21:25;;;;;;;120.85;15.43;;;11.60;97.80;;;;;;5050297;28;20480;-59
2024/03/01 11:23:56;;;;;;;97.75;14.35;;;11.60;98.00;;;;;;5047736;28;20017;-59
2024/03/01 11:26:30;;;;;;;140.65;15.30;;;11.70;98.40;;;;;;5047612;28;20044;-59
2024/03/01 11:28:58;;;;;;;108.53;14.63;;;11.60;98.40;;;;;;5026046;28;20028;-59
2024/03/01 11:31:33;;;;;;;137.95;17.13;;;11.70;98.40;;;;;;5030854;28;20052;-59
2024/03/01 11:34:02;;;;;;;140.98;17.58;;;11.70;98.30;;;;;;5032026;28;20059;-59
2024/03/01 11:36:56;;;;;;;119.00;16.05;;;11.70;98.30;;;;;;5014270;28;20091;-60
2024/03/01 11:39:51;;;;;;;106.78;14.02;;;11.70;98.20;;;;;;5049652;28;20051;-59
2024/03/01 11:42:25;;;;;;;84.85;11.63;;;11.70;98.00;;;;;;5028493;28;20125;-59
2024/03/01 11:44:56;;;;;;;85.43;12.80;;;11.70;97.80;;;;;;5042571;28;20021;-59
2024/03/01 11:47:42;;;;;;;82.88;12.23;;;11.70;97.80;;;;;;5041890;28;20494;-59
2024/03/01 11:50:43;;;;;;;105.00;13.55;;;11.70;97.70;;;;;;5044737;28;20085;-59
2024/03/01 11:53:35;;;;;;;118.88;14.30;;;11.80;98.00;;;;;;5057779;28;20079;-59
2024/03/01 11:56:09;;;;;;;136.52;14.48;;;11.80;98.00;;;;;;5061833;28;20045;-59
2024/03/01 11:58:52;;;;;;;128.98;15.77;;;11.80;98.00;;;;;;5044517;28;20247;-59
2024/03/01 12:01:23;;;;;;;113.30;17.02;;;11.80;98.10;;;;;;5033304;28;20040;-59
2024/03/01 12:04:01;;;;;;;131.13;16.30;;;11.90;98.30;;;;;;5039048;28;20080;-59
2024/03/01 12:06:49;;;;;;;108.85;14.00;;;11.90;98.20;;;;;;5067689;28;20351;-59
2024/03/01 12:09:53;;;;;;;82.65;15.10;;;11.90;98.10;;;;;;5074308;28;20073;-59
2024/03/01 12:12:41;;;;;;;99.18;15.10;;;11.90;98.10;;;;;;5060687;28;20060;-59
2024/03/01 12:15:12;;;;;;;129.18;17.45;;;11.90;98.20;;;;;;5040268;28;20025;-59
2024/03/01 12:17:43;;;;;;;135.07;16.55;;;12.00;98.20;;;;;;5025539;28;20041;-58
2024/03/01 12:20:10;;;;;;;130.55;16.70;;;12.00;98.20;;;;;;5041965;28;20056;-59
2024/03/01 12:22:58;;;;;;;260.48;27.83;;;12.00;98.20;;;;;;5044529;28;20032;-58
2024/03/01 12:25:24;;;;;;;155.88;19.05;;;12.10;98.30;;;;;;5059106;28;20105;-59
2024/03/01 12:28:08;;;;;;;199.82;22.50;;;12.10;98.30;;;;;;5013923;28;20124;-59
2024/03/01 12:30:36;;;;;;;130.60;17.05;;;12.10;98.50;;;;;;5042745;28;20033;-59
2024/03/01 12:33:31;;;;;;;92.55;13.40;;;12.20;98.50;;;;;;5057758;28;20161;-59
2024/03/01 12:36:00;;;;;;;288.52;31.70;;;12.20;98.60;;;;;;5071789;28;20045;-59
2024/03/01 12:38:35;;;;;;;149.35;19.70;;;12.20;98.40;;;;;;5050955;28;20029;-59